createdAt,value
2018-10-05T00:00:39.468Z,1.77
2018-10-05T00:03:05.844Z,1.60
2018-10-05T00:05:32.257Z,1.77
2018-10-05T00:07:58.625Z,1.60
2018-10-05T00:10:25.026Z,1.73
2018-10-05T00:12:51.461Z,1.83
2018-10-05T00:15:17.791Z,2.00
2018-10-05T00:17:44.190Z,1.90
2018-10-05T00:20:10.550Z,1.60
2018-10-05T00:22:36.944Z,1.63
2018-10-05T00:25:03.332Z,1.60
2018-10-05T00:27:29.726Z,1.70
2018-10-05T00:29:56.077Z,1.63
2018-10-05T00:32:22.448Z,2.00
2018-10-05T00:34:48.831Z,1.60
2018-10-05T00:37:15.181Z,1.60
2018-10-05T00:39:41.579Z,1.80
2018-10-05T00:42:07.920Z,1.80
2018-10-05T00:44:34.318Z,2.00
2018-10-05T00:47:00.670Z,1.70
2018-10-05T00:49:27.081Z,1.83
2018-10-05T00:51:53.434Z,2.00
2018-10-05T00:54:19.756Z,1.60
2018-10-05T00:56:46.122Z,1.90
2018-10-05T00:59:12.482Z,1.60
2018-10-05T01:01:38.880Z,1.83
2018-10-05T01:04:05.236Z,1.83
2018-10-05T01:06:31.622Z,1.80
2018-10-05T01:08:58.043Z,1.70
2018-10-05T01:11:24.486Z,1.80
2018-10-05T01:13:50.826Z,1.60
2018-10-05T01:16:17.224Z,1.70
2018-10-05T01:18:43.638Z,1.80
2018-10-05T01:21:10.038Z,1.80
2018-10-05T01:23:36.431Z,1.60
2018-10-05T01:26:02.828Z,1.57
2018-10-05T01:28:29.166Z,1.70
2018-10-05T01:30:55.623Z,1.60
2018-10-05T01:33:22.036Z,1.70
2018-10-05T01:35:48.391Z,1.70
2018-10-05T01:38:14.769Z,1.80
2018-10-05T01:40:41.127Z,1.57
2018-10-05T01:43:07.512Z,1.50
2018-10-05T01:45:33.927Z,1.70
2018-10-05T01:48:00.326Z,1.70
2018-10-05T01:50:26.721Z,1.53
2018-10-05T01:52:53.046Z,1.70
2018-10-05T01:55:19.398Z,1.53
2018-10-05T01:57:45.806Z,1.70
2018-10-05T02:00:12.189Z,1.43
2018-10-05T02:02:38.691Z,1.53
2018-10-05T02:05:05.078Z,1.90
2018-10-05T02:07:31.443Z,1.67
2018-10-05T02:09:57.842Z,1.67
2018-10-05T02:12:24.276Z,1.53
2018-10-05T02:14:50.646Z,1.40
2018-10-05T02:17:17.082Z,1.67
2018-10-05T02:19:43.506Z,1.63
2018-10-05T02:22:09.975Z,1.40
2018-10-05T02:24:36.330Z,1.40
2018-10-05T02:27:02.725Z,1.37
2018-10-05T02:29:29.110Z,1.40
2018-10-05T02:31:55.453Z,1.30
2018-10-05T02:34:21.812Z,1.37
2018-10-05T02:36:48.180Z,1.37
2018-10-05T02:39:14.589Z,1.53
2018-10-05T02:41:41.026Z,1.40
2018-10-05T02:44:07.350Z,1.40
2018-10-05T02:46:33.757Z,1.80
2018-10-05T02:49:00.114Z,1.50
2018-10-05T02:51:26.471Z,1.53
2018-10-05T02:53:52.906Z,1.60
2018-10-05T02:56:19.336Z,1.60
2018-10-05T02:58:45.740Z,1.47
2018-10-05T03:01:12.128Z,1.50
2018-10-05T03:03:39.176Z,1.40
2018-10-05T03:06:05.579Z,1.40
2018-10-05T03:08:31.924Z,1.30
2018-10-05T03:10:58.324Z,1.50
2018-10-05T03:13:24.653Z,1.23
2018-10-05T03:15:51.052Z,1.60
2018-10-05T03:18:17.404Z,1.50
2018-10-05T03:20:43.797Z,1.63
2018-10-05T03:23:10.133Z,1.40
2018-10-05T03:25:36.527Z,1.43
2018-10-05T03:28:02.884Z,1.47
2018-10-05T03:30:29.267Z,1.50
2018-10-05T03:32:55.593Z,1.63
2018-10-05T03:35:21.956Z,1.47
2018-10-05T03:37:48.322Z,1.87
2018-10-05T03:40:14.684Z,1.53
2018-10-05T03:42:41.020Z,1.47
2018-10-05T03:45:07.384Z,1.50
2018-10-05T03:47:33.813Z,1.60
2018-10-05T03:50:00.191Z,1.63
2018-10-05T03:52:26.543Z,1.70
2018-10-05T03:54:52.927Z,1.40
2018-10-05T03:57:19.306Z,1.50
2018-10-05T03:59:45.701Z,1.70
2018-10-05T04:02:12.089Z,1.60
2018-10-05T04:04:38.492Z,2.10
2018-10-05T04:07:04.886Z,1.93
2018-10-05T04:09:31.284Z,1.90
2018-10-05T04:11:57.719Z,1.87
2018-10-05T04:14:24.079Z,1.70
2018-10-05T04:16:50.469Z,2.00
2018-10-05T04:19:16.807Z,2.20
2018-10-05T04:21:43.183Z,2.50
2018-10-05T04:24:09.574Z,2.30
2018-10-05T04:26:35.978Z,2.20
2018-10-05T04:29:02.408Z,2.03
2018-10-05T04:31:28.845Z,2.33
2018-10-05T04:33:55.201Z,1.97
2018-10-05T04:36:21.608Z,2.60
2018-10-05T04:38:48.013Z,2.13
2018-10-05T04:41:14.511Z,1.90
2018-10-05T04:43:40.872Z,2.50
2018-10-05T04:46:07.260Z,2.00
2018-10-05T04:48:33.588Z,2.33
2018-10-05T04:50:59.936Z,1.80
2018-10-05T04:53:26.288Z,1.70
2018-10-05T04:55:52.687Z,1.90
2018-10-05T04:58:19.112Z,1.80
2018-10-05T05:00:45.516Z,1.77
2018-10-05T05:03:11.845Z,2.13
2018-10-05T05:05:38.204Z,1.60
2018-10-05T05:08:04.566Z,1.73
2018-10-05T05:10:31.041Z,1.67
2018-10-05T05:12:57.398Z,1.80
2018-10-05T05:15:23.804Z,1.70
2018-10-05T05:17:50.209Z,1.90
2018-10-05T05:20:16.600Z,1.73
2018-10-05T05:22:42.990Z,1.67
2018-10-05T05:25:09.329Z,1.67
2018-10-05T05:27:35.733Z,1.80
2018-10-05T05:30:02.130Z,1.73
2018-10-05T05:32:28.514Z,1.70
2018-10-05T05:34:54.898Z,1.60
2018-10-05T05:37:21.277Z,1.87
2018-10-05T05:39:47.610Z,1.57
2018-10-05T05:42:13.979Z,1.70
2018-10-05T05:44:40.399Z,1.70
2018-10-05T05:47:06.735Z,1.70
2018-10-05T05:49:33.069Z,1.70
2018-10-05T05:51:59.404Z,1.73
2018-10-05T05:54:25.940Z,1.50
2018-10-05T05:56:52.331Z,1.90
2018-10-05T05:59:18.681Z,1.77
2018-10-05T06:01:45.023Z,1.80
2018-10-05T06:04:11.450Z,1.90
2018-10-05T06:06:38.922Z,1.60
2018-10-05T06:09:05.421Z,1.50
2018-10-05T06:11:31.793Z,1.80
2018-10-05T06:13:58.113Z,1.57
2018-10-05T06:16:24.507Z,1.90
2018-10-05T06:18:50.839Z,2.00
2018-10-05T06:21:17.212Z,1.90
2018-10-05T06:23:43.635Z,2.00
2018-10-05T06:26:10.038Z,2.10
2018-10-05T06:28:36.460Z,1.57
2018-10-05T06:31:03.019Z,1.90
2018-10-05T06:33:29.313Z,1.70
2018-10-05T06:35:55.668Z,2.00
2018-10-05T06:38:22.077Z,2.17
2018-10-05T06:40:48.462Z,2.70
2018-10-05T06:43:14.896Z,2.10
2018-10-05T06:45:41.288Z,2.47
2018-10-05T06:48:07.710Z,2.10
2018-10-05T06:50:34.101Z,2.60
2018-10-05T06:53:00.430Z,2.20
2018-10-05T06:55:26.793Z,2.60
2018-10-05T06:57:53.287Z,2.67
2018-10-05T07:00:19.684Z,2.77
2018-10-05T07:02:46.152Z,2.97
2018-10-05T07:05:12.578Z,2.33
2018-10-05T07:07:39.041Z,2.67
2018-10-05T07:10:05.552Z,3.20
2018-10-05T07:12:31.949Z,2.80
2018-10-05T07:14:58.426Z,2.70
2018-10-05T07:17:24.882Z,2.53
2018-10-05T07:19:51.320Z,2.23
2018-10-05T07:22:17.961Z,2.70
2018-10-05T07:24:45.043Z,2.40
2018-10-05T07:27:11.404Z,2.77
2018-10-05T07:29:37.838Z,2.30
2018-10-05T07:32:04.197Z,2.10
2018-10-05T07:34:30.538Z,2.43
2018-10-05T07:36:56.924Z,2.63
2018-10-05T07:39:23.742Z,2.57
2018-10-05T07:41:51.164Z,2.37
2018-10-05T07:44:17.576Z,3.00
2018-10-05T07:46:44.083Z,2.60
2018-10-05T07:49:10.492Z,3.00
2018-10-05T07:51:36.925Z,1.93
2018-10-05T07:54:03.298Z,2.40
2018-10-05T07:56:29.671Z,3.00
2018-10-05T07:58:56.547Z,2.10
2018-10-05T08:01:22.907Z,2.30
2018-10-05T08:03:49.406Z,2.40
2018-10-05T08:06:15.855Z,2.10
2018-10-05T08:08:42.281Z,2.17
2018-10-05T08:11:08.664Z,2.30
2018-10-05T08:13:35.149Z,2.13
2018-10-05T08:16:01.531Z,1.80
2018-10-05T08:18:28.522Z,2.23
2018-10-05T08:20:54.998Z,2.23
2018-10-05T08:23:21.386Z,2.20
2018-10-05T08:25:47.830Z,1.87
2018-10-05T08:28:14.221Z,2.00
2018-10-05T08:30:40.655Z,1.90
2018-10-05T08:33:07.033Z,1.70
2018-10-05T08:35:33.427Z,1.97
2018-10-05T08:37:59.788Z,1.80
2018-10-05T08:40:26.162Z,2.43
2018-10-05T08:42:52.610Z,2.27
2018-10-05T08:45:19.119Z,1.97
2018-10-05T08:47:45.554Z,2.00
2018-10-05T08:50:11.915Z,2.10
2018-10-05T08:52:38.282Z,2.07
2018-10-05T08:55:04.714Z,1.60
2018-10-05T08:57:31.085Z,1.80
2018-10-05T08:59:57.568Z,2.27
2018-10-05T09:02:24.025Z,1.80
2018-10-05T09:04:50.445Z,1.87
2018-10-05T09:07:16.914Z,1.80
2018-10-05T09:09:43.442Z,1.90
2018-10-05T09:12:09.961Z,2.10
2018-10-05T09:14:36.353Z,1.70
2018-10-05T09:17:02.715Z,1.60
2018-10-05T09:19:29.079Z,1.60
2018-10-05T09:21:55.550Z,1.80
2018-10-05T09:24:21.921Z,1.90
2018-10-05T09:26:48.275Z,1.73
2018-10-05T09:29:14.713Z,2.83
2018-10-05T09:31:41.200Z,1.80
2018-10-05T09:34:07.608Z,1.77
2018-10-05T09:36:34.039Z,1.60
2018-10-05T09:39:00.470Z,1.50
2018-10-05T09:41:26.901Z,1.80
2018-10-05T09:43:53.296Z,1.73
2018-10-05T09:46:19.664Z,1.60
2018-10-05T09:48:46.022Z,1.37
2018-10-05T09:51:12.484Z,1.80
2018-10-05T09:53:38.892Z,1.60
2018-10-05T09:56:05.235Z,1.80
2018-10-05T09:58:31.971Z,1.50
2018-10-05T10:00:58.363Z,1.90
2018-10-05T10:03:24.779Z,1.93
2018-10-05T10:05:52.231Z,1.50
2018-10-05T10:08:18.577Z,1.60
2018-10-05T10:10:44.951Z,1.60
2018-10-05T10:13:11.350Z,1.20
2018-10-05T10:15:37.709Z,2.80
2018-10-05T10:18:04.140Z,1.70
2018-10-05T10:20:30.518Z,1.60
2018-10-05T10:22:56.853Z,1.70
2018-10-05T10:25:23.237Z,1.60
2018-10-05T10:27:49.684Z,2.00
2018-10-05T10:30:16.071Z,1.83
2018-10-05T10:32:42.437Z,1.60
2018-10-05T10:35:08.843Z,1.27
2018-10-05T10:37:35.257Z,1.60
2018-10-05T10:40:01.719Z,1.73
2018-10-05T10:42:28.078Z,1.80
2018-10-05T10:44:54.480Z,1.47
2018-10-05T10:47:20.835Z,2.27
2018-10-05T10:49:47.223Z,1.87
2018-10-05T10:52:13.711Z,1.40
2018-10-05T10:54:40.421Z,1.53
2018-10-05T10:57:06.854Z,1.67
2018-10-05T10:59:33.231Z,1.70
2018-10-05T11:01:59.674Z,2.07
2018-10-05T11:04:26.083Z,1.93
2018-10-05T11:06:53.219Z,1.80
2018-10-05T11:09:19.640Z,1.60
2018-10-05T11:11:46.108Z,1.90
2018-10-05T11:14:12.524Z,1.43
2018-10-05T11:16:38.915Z,1.50
2018-10-05T11:19:05.318Z,1.80
2018-10-05T11:21:31.697Z,1.43
2018-10-05T11:23:58.055Z,1.50
2018-10-05T11:26:24.518Z,1.23
2018-10-05T11:28:50.890Z,1.67
2018-10-05T11:31:17.277Z,1.60
2018-10-05T11:33:43.676Z,1.70
2018-10-05T11:36:10.041Z,1.57
2018-10-05T11:38:36.422Z,1.50
2018-10-05T11:41:02.780Z,1.67
2018-10-05T11:43:29.134Z,1.80
2018-10-05T11:45:55.558Z,1.50
2018-10-05T11:48:22.031Z,2.30
2018-10-05T11:50:48.482Z,2.03
2018-10-05T11:53:15.015Z,1.87
2018-10-05T11:55:41.712Z,2.43
2018-10-05T11:58:08.137Z,1.70
2018-10-05T12:00:34.547Z,1.90
2018-10-05T12:03:00.934Z,1.67
2018-10-05T12:05:27.365Z,2.00
2018-10-05T12:07:53.749Z,1.50
2018-10-05T12:10:20.179Z,1.60
2018-10-05T12:12:46.559Z,1.93
2018-10-05T12:15:12.983Z,1.90
2018-10-05T12:17:39.421Z,1.77
2018-10-05T12:20:05.811Z,1.77
2018-10-05T12:22:32.279Z,1.63
2018-10-05T12:24:58.664Z,1.90
2018-10-05T12:27:25.078Z,1.60
2018-10-05T12:29:51.409Z,1.83
2018-10-05T12:32:17.727Z,1.80
2018-10-05T12:34:44.156Z,2.10
2018-10-05T12:37:10.724Z,2.50
2018-10-05T12:39:37.128Z,2.10
2018-10-05T12:42:04.342Z,2.00
2018-10-05T12:44:30.924Z,1.50
2018-10-05T12:46:57.325Z,1.60
2018-10-05T12:49:23.721Z,1.60
2018-10-05T12:51:50.082Z,1.70
2018-10-05T12:54:16.550Z,1.57
2018-10-05T12:56:43.674Z,1.80
2018-10-05T12:59:10.024Z,2.10
2018-10-05T13:01:36.389Z,2.00
2018-10-05T13:04:02.862Z,2.07
2018-10-05T13:06:29.296Z,2.33
2018-10-05T13:08:55.677Z,1.47
2018-10-05T13:11:22.141Z,1.80
2018-10-05T13:13:48.521Z,1.90
2018-10-05T13:16:14.869Z,1.60
2018-10-05T13:18:41.220Z,1.80
2018-10-05T13:21:07.920Z,1.80
2018-10-05T13:23:34.251Z,2.07
2018-10-05T13:26:00.606Z,1.53
2018-10-05T13:28:26.978Z,2.40
2018-10-05T13:30:53.351Z,2.10
2018-10-05T13:33:19.737Z,2.00
2018-10-05T13:35:46.109Z,2.13
2018-10-05T13:38:12.462Z,1.90
2018-10-05T13:40:39.056Z,2.10
2018-10-05T13:43:05.464Z,2.20
2018-10-05T13:45:31.808Z,2.17
2018-10-05T13:47:58.194Z,2.10
2018-10-05T13:50:25.324Z,2.27
2018-10-05T13:52:51.825Z,1.80
2018-10-05T13:55:18.294Z,1.83
2018-10-05T13:57:44.664Z,2.23
2018-10-05T14:00:11.238Z,1.87
2018-10-05T14:02:37.745Z,2.00
2018-10-05T14:05:04.177Z,2.07
2018-10-05T14:07:30.551Z,1.83
2018-10-05T14:09:56.968Z,1.60
2018-10-05T14:12:23.317Z,2.70
2018-10-05T14:14:49.797Z,2.70
2018-10-05T14:17:16.243Z,1.90
2018-10-05T14:19:42.690Z,1.90
2018-10-05T14:22:09.166Z,2.00
2018-10-05T14:24:35.572Z,2.23
2018-10-05T14:27:02.116Z,1.80
2018-10-05T14:29:28.644Z,2.07
2018-10-05T14:31:55.082Z,1.80
2018-10-05T14:34:21.488Z,2.50
2018-10-05T14:36:47.846Z,2.30
2018-10-05T14:39:14.573Z,2.00
2018-10-05T14:41:41.228Z,2.30
2018-10-05T14:44:07.721Z,1.80
2018-10-05T14:46:34.086Z,1.77
2018-10-05T14:49:00.526Z,1.90
2018-10-05T14:51:26.876Z,2.20
2018-10-05T14:53:53.307Z,1.53
2018-10-05T14:56:19.795Z,1.73
2018-10-05T14:58:46.196Z,2.03
2018-10-05T15:01:12.639Z,1.60
2018-10-05T15:03:39.046Z,1.70
2018-10-05T15:06:05.437Z,1.70
2018-10-05T15:08:31.834Z,1.60
2018-10-05T15:10:58.267Z,1.63
2018-10-05T15:13:24.596Z,1.50
2018-10-05T15:15:50.992Z,1.93
2018-10-05T15:18:17.340Z,1.70
2018-10-05T15:20:43.807Z,2.10
2018-10-05T15:23:10.272Z,1.90
2018-10-05T15:25:36.704Z,2.57
2018-10-05T15:28:03.101Z,2.00
2018-10-05T15:30:29.536Z,1.80
2018-10-05T15:32:56.004Z,2.37
2018-10-05T15:35:22.304Z,1.83
2018-10-05T15:37:48.767Z,1.63
2018-10-05T15:40:15.088Z,1.60
2018-10-05T15:42:41.489Z,2.00
2018-10-05T15:45:08.004Z,1.70
2018-10-05T15:47:34.334Z,1.90
2018-10-05T15:50:00.728Z,1.77
2018-10-05T15:52:27.073Z,1.97
2018-10-05T15:54:53.449Z,1.50
2018-10-05T15:57:19.919Z,2.13
2018-10-05T15:59:46.427Z,1.43
2018-10-05T16:02:12.861Z,2.33
2018-10-05T16:04:39.215Z,1.80
2018-10-05T16:07:05.546Z,1.73
2018-10-05T16:09:31.879Z,2.20
2018-10-05T16:11:58.299Z,1.77
2018-10-05T16:14:24.719Z,1.80
2018-10-05T16:16:51.048Z,2.10
2018-10-05T16:19:17.507Z,1.70
2018-10-05T16:21:43.908Z,1.77
2018-10-05T16:24:10.241Z,2.00
2018-10-05T16:26:36.639Z,2.20
2018-10-05T16:29:02.995Z,2.20
2018-10-05T16:31:29.395Z,2.20
2018-10-05T16:33:55.753Z,2.07
2018-10-05T16:36:22.110Z,2.40
2018-10-05T16:38:48.506Z,2.57
2018-10-05T16:41:14.963Z,2.70
2018-10-05T16:43:41.900Z,2.50
2018-10-05T16:46:08.310Z,2.80
2018-10-05T16:48:34.773Z,2.20
2018-10-05T16:51:01.178Z,2.50
2018-10-05T16:53:27.567Z,2.60
2018-10-05T16:55:53.940Z,2.40
2018-10-05T16:58:20.333Z,2.40
2018-10-05T17:00:46.660Z,2.50
2018-10-05T17:03:13.205Z,2.30
2018-10-05T17:05:39.532Z,2.20
2018-10-05T17:08:05.930Z,2.80
2018-10-05T17:10:32.394Z,2.43
2018-10-05T17:12:58.749Z,2.20
2018-10-05T17:15:25.082Z,2.00
2018-10-05T17:17:51.440Z,2.63
2018-10-05T17:20:17.793Z,2.20
2018-10-05T17:22:44.222Z,2.70
2018-10-05T17:25:10.591Z,2.10
2018-10-05T17:27:36.986Z,2.53
2018-10-05T17:30:03.344Z,2.50
2018-10-05T17:32:29.744Z,2.53
2018-10-05T17:34:56.132Z,2.03
2018-10-05T17:37:22.551Z,2.63
2018-10-05T17:39:48.945Z,2.50
2018-10-05T17:42:15.332Z,2.37
2018-10-05T17:44:41.840Z,2.97
2018-10-05T17:47:08.273Z,2.60
2018-10-05T17:49:34.641Z,2.13
2018-10-05T17:52:01.026Z,2.53
2018-10-05T17:54:27.364Z,2.30
2018-10-05T17:56:53.765Z,2.30
2018-10-05T17:59:20.141Z,2.13
2018-10-05T18:01:46.586Z,2.03
2018-10-05T18:04:12.945Z,2.30
2018-10-05T18:06:39.297Z,2.27
2018-10-05T18:09:05.657Z,2.50
2018-10-05T18:11:32.106Z,2.40
2018-10-05T18:13:58.456Z,2.30
2018-10-05T18:16:24.948Z,2.20
2018-10-05T18:18:51.352Z,2.03
2018-10-05T18:21:17.822Z,2.63
2018-10-05T18:23:44.353Z,2.00
2018-10-05T18:26:10.794Z,2.20
2018-10-05T18:28:37.136Z,2.30
2018-10-05T18:31:03.535Z,2.20
2018-10-05T18:33:29.874Z,2.20
2018-10-05T18:35:56.298Z,2.30
2018-10-05T18:38:22.644Z,2.40
2018-10-05T18:40:49.025Z,2.50
2018-10-05T18:43:15.439Z,2.30
2018-10-05T18:45:42.413Z,2.23
2018-10-05T18:48:08.749Z,2.47
2018-10-05T18:50:35.120Z,2.57
2018-10-05T18:53:01.475Z,2.70
2018-10-05T18:55:27.864Z,2.43
2018-10-05T18:57:54.342Z,2.30
2018-10-05T19:00:20.743Z,2.33
2018-10-05T19:02:47.138Z,2.50
2018-10-05T19:05:13.503Z,2.77
2018-10-05T19:07:39.900Z,2.53
2018-10-05T19:10:06.339Z,2.20
2018-10-05T19:12:32.706Z,2.50
2018-10-05T19:14:59.307Z,2.37
2018-10-05T19:17:25.664Z,2.13
2018-10-05T19:19:52.011Z,2.20
2018-10-05T19:22:18.370Z,2.23
2018-10-05T19:24:44.736Z,2.40
2018-10-05T19:27:11.068Z,2.50
2018-10-05T19:29:37.409Z,2.40
2018-10-05T19:32:03.763Z,2.27
2018-10-05T19:34:30.175Z,2.27
2018-10-05T19:36:56.514Z,2.23
2018-10-05T19:39:22.913Z,2.53
2018-10-05T19:41:49.268Z,2.13
2018-10-05T19:44:15.696Z,2.43
2018-10-05T19:46:42.093Z,2.20
2018-10-05T19:49:08.481Z,2.40
2018-10-05T19:51:34.884Z,2.40
2018-10-05T19:54:01.258Z,2.20
2018-10-05T19:56:27.591Z,2.20
2018-10-05T19:58:54.007Z,2.47
2018-10-05T20:01:20.361Z,2.50
2018-10-05T20:03:46.782Z,2.20
2018-10-05T20:06:13.143Z,2.20
2018-10-05T20:08:39.478Z,2.40
2018-10-05T20:11:05.816Z,2.20
2018-10-05T20:13:32.148Z,2.70
2018-10-05T20:15:58.518Z,2.80
2018-10-05T20:18:24.984Z,2.43
2018-10-05T20:20:51.265Z,2.40
2018-10-05T20:23:17.658Z,2.00
2018-10-05T20:25:44.028Z,2.80
2018-10-05T20:28:10.404Z,2.40
2018-10-05T20:30:36.740Z,2.50
2018-10-05T20:33:03.140Z,2.50
2018-10-05T20:35:29.491Z,2.23
2018-10-05T20:37:55.958Z,2.30
2018-10-05T20:40:22.305Z,2.47
2018-10-05T20:42:48.677Z,2.30
2018-10-05T20:45:15.030Z,2.27
2018-10-05T20:47:41.374Z,2.33
2018-10-05T20:50:07.743Z,2.50
2018-10-05T20:52:34.077Z,2.40
2018-10-05T20:55:00.478Z,2.30
2018-10-05T20:57:26.875Z,2.60
2018-10-05T20:59:53.499Z,2.37
2018-10-05T21:02:19.891Z,2.53
2018-10-05T21:04:46.273Z,2.27
2018-10-05T21:07:12.679Z,2.70
2018-10-05T21:09:39.084Z,2.00
2018-10-05T21:12:05.523Z,2.27
2018-10-05T21:14:31.927Z,2.20
2018-10-05T21:16:58.359Z,2.10
2018-10-05T21:19:24.791Z,2.17
2018-10-05T21:21:51.183Z,2.37
2018-10-05T21:24:17.635Z,2.30
2018-10-05T21:26:44.014Z,2.40
2018-10-05T21:29:10.446Z,2.20
2018-10-05T21:31:36.872Z,2.23
2018-10-05T21:34:03.308Z,2.20
2018-10-05T21:36:29.675Z,2.20
2018-10-05T21:38:56.107Z,2.27
2018-10-05T21:41:22.528Z,2.27
2018-10-05T21:43:48.898Z,2.43
2018-10-05T21:46:15.329Z,2.33
2018-10-05T21:48:41.729Z,2.17
2018-10-05T21:51:08.261Z,2.53
2018-10-05T21:53:34.800Z,2.90
2018-10-05T21:56:01.239Z,2.20
2018-10-05T21:58:27.635Z,2.50
2018-10-05T22:00:54.030Z,2.40
2018-10-05T22:03:20.464Z,2.30
2018-10-05T22:05:46.870Z,2.07
2018-10-05T22:08:13.266Z,2.20
2018-10-05T22:10:39.826Z,2.77
2018-10-05T22:13:06.233Z,2.20
2018-10-05T22:15:32.619Z,2.03
2018-10-05T22:17:59.002Z,2.13
2018-10-05T22:20:25.418Z,2.30
2018-10-05T22:22:51.888Z,2.27
2018-10-05T22:25:18.292Z,2.30
2018-10-05T22:27:44.731Z,2.20
2018-10-05T22:30:11.098Z,2.60
2018-10-05T22:32:37.486Z,2.70
2018-10-05T22:35:03.933Z,2.17
2018-10-05T22:37:30.319Z,2.20
2018-10-05T22:39:56.750Z,2.30
2018-10-05T22:42:23.119Z,2.47
2018-10-05T22:44:49.518Z,2.40
2018-10-05T22:47:16.010Z,2.13
2018-10-05T22:49:42.443Z,2.60
2018-10-05T22:52:08.882Z,2.40
2018-10-05T22:54:35.304Z,2.33
2018-10-05T22:57:01.735Z,2.00
2018-10-05T22:59:28.123Z,2.07
2018-10-05T23:01:54.537Z,2.00
2018-10-05T23:04:20.922Z,2.27
2018-10-05T23:06:47.346Z,2.40
2018-10-05T23:09:13.750Z,2.47
2018-10-05T23:11:40.437Z,2.63
2018-10-05T23:14:06.807Z,2.07
2018-10-05T23:16:33.197Z,2.03
2018-10-05T23:18:59.592Z,2.23
2018-10-05T23:21:26.065Z,2.10
2018-10-05T23:23:52.441Z,2.20
2018-10-05T23:26:18.912Z,2.23
2018-10-05T23:28:45.299Z,2.43
2018-10-05T23:31:11.806Z,2.20
2018-10-05T23:33:38.232Z,2.10
2018-10-05T23:36:04.755Z,2.30
2018-10-05T23:38:31.161Z,2.20
2018-10-05T23:40:57.707Z,2.20
2018-10-05T23:43:24.100Z,2.13
2018-10-05T23:45:50.542Z,2.03
2018-10-05T23:48:17.083Z,2.10
2018-10-05T23:50:43.513Z,2.00
2018-10-05T23:53:09.967Z,2.07
2018-10-05T23:55:36.529Z,2.20
2018-10-05T23:58:02.903Z,2.13
